sensor_id;sensor_type;location;lat;lon;timestamp;pressure;altitude;pressure_sealevel;temperature;humidity
47374;BME280;33123;50.118;10.272;2023-04-22T00:02:21;97152.75;;;14.77;54.89
47374;BME280;33123;50.118;10.272;2023-04-22T00:04:48;97149.56;;;14.75;54.56
47374;BME280;33123;50.118;10.272;2023-04-22T00:07:15;97146.91;;;14.75;54.37
47374;BME280;33123;50.118;10.272;2023-04-22T00:09:42;97150.16;;;14.72;54.40
47374;BME280;33123;50.118;10.272;2023-04-22T00:12:09;97147.94;;;14.79;54.39
47374;BME280;33123;50.118;10.272;2023-04-22T00:14:36;97151.84;;;14.82;54.36
47374;BME280;33123;50.118;10.272;2023-04-22T00:17:03;97153.16;;;14.85;53.85
47374;BME280;33123;50.118;10.272;2023-04-22T00:19:32;97141.97;;;14.88;53.51
47374;BME280;33123;50.118;10.272;2023-04-22T00:21:58;97151.47;;;14.94;53.63
47374;BME280;33123;50.118;10.272;2023-04-22T00:24:25;97141.25;;;15.01;53.26
47374;BME280;33123;50.118;10.272;2023-04-22T00:26:52;97139.50;;;15.10;53.15
47374;BME280;33123;50.118;10.272;2023-04-22T00:29:18;97137.09;;;15.14;53.10
47374;BME280;33123;50.118;10.272;2023-04-22T00:31:45;97140.03;;;15.12;52.86
47374;BME280;33123;50.118;10.272;2023-04-22T00:34:12;97136.78;;;15.15;52.80
47374;BME280;33123;50.118;10.272;2023-04-22T00:36:39;97133.88;;;15.17;52.56
47374;BME280;33123;50.118;10.272;2023-04-22T00:39:06;97132.50;;;15.19;52.38
47374;BME280;33123;50.118;10.272;2023-04-22T00:41:33;97132.84;;;15.13;52.23
47374;BME280;33123;50.118;10.272;2023-04-22T00:44:00;97128.75;;;15.20;52.78
47374;BME280;33123;50.118;10.272;2023-04-22T00:46:27;97124.81;;;15.18;52.58
47374;BME280;33123;50.118;10.272;2023-04-22T00:48:55;97125.31;;;15.20;52.26
47374;BME280;33123;50.118;10.272;2023-04-22T00:51:22;97128.91;;;15.10;52.78
47374;BME280;33123;50.118;10.272;2023-04-22T00:53:50;97121.38;;;15.17;52.78
47374;BME280;33123;50.118;10.272;2023-04-22T00:56:18;97117.94;;;15.17;52.49
47374;BME280;33123;50.118;10.272;2023-04-22T00:58:45;97122.16;;;15.18;52.62
47374;BME280;33123;50.118;10.272;2023-04-22T01:01:12;97122.94;;;15.18;52.32
47374;BME280;33123;50.118;10.272;2023-04-22T01:03:40;97125.53;;;15.23;52.30
47374;BME280;33123;50.118;10.272;2023-04-22T01:06:06;97127.69;;;15.21;52.31
47374;BME280;33123;50.118;10.272;2023-04-22T01:08:33;97105.53;;;15.12;52.22
47374;BME280;33123;50.118;10.272;2023-04-22T01:11:01;97122.38;;;15.21;52.05
47374;BME280;33123;50.118;10.272;2023-04-22T01:13:28;97120.72;;;15.25;52.05
47374;BME280;33123;50.118;10.272;2023-04-22T01:15:55;97119.28;;;15.33;51.61
47374;BME280;33123;50.118;10.272;2023-04-22T01:18:22;97119.38;;;15.42;51.56
47374;BME280;33123;50.118;10.272;2023-04-22T01:20:48;97114.06;;;15.42;51.28
47374;BME280;33123;50.118;10.272;2023-04-22T01:23:18;97128.03;;;15.34;51.37
47374;BME280;33123;50.118;10.272;2023-04-22T01:25:45;97118.81;;;15.45;51.39
47374;BME280;33123;50.118;10.272;2023-04-22T01:28:13;97125.69;;;15.46;51.12
47374;BME280;33123;50.118;10.272;2023-04-22T01:30:40;97124.03;;;15.50;50.82
47374;BME280;33123;50.118;10.272;2023-04-22T01:33:08;97132.13;;;15.58;50.85
47374;BME280;33123;50.118;10.272;2023-04-22T01:35:35;97138.28;;;15.54;50.88
47374;BME280;33123;50.118;10.272;2023-04-22T01:38:02;97130.84;;;15.56;50.83
47374;BME280;33123;50.118;10.272;2023-04-22T01:40:30;97133.38;;;15.47;50.72
47374;BME280;33123;50.118;10.272;2023-04-22T01:42:58;97134.84;;;15.53;50.82
47374;BME280;33123;50.118;10.272;2023-04-22T01:45:24;97138.13;;;15.50;50.65
47374;BME280;33123;50.118;10.272;2023-04-22T01:47:51;97141.25;;;15.52;50.69
47374;BME280;33123;50.118;10.272;2023-04-22T01:50:18;97144.41;;;15.54;50.55
47374;BME280;33123;50.118;10.272;2023-04-22T01:52:45;97143.34;;;15.55;50.67
47374;BME280;33123;50.118;10.272;2023-04-22T01:55:11;97135.63;;;15.54;50.61
47374;BME280;33123;50.118;10.272;2023-04-22T01:57:39;97141.56;;;15.51;50.73
47374;BME280;33123;50.118;10.272;2023-04-22T02:00:07;97141.56;;;15.51;50.56
47374;BME280;33123;50.118;10.272;2023-04-22T02:02:34;97141.16;;;15.44;50.76
47374;BME280;33123;50.118;10.272;2023-04-22T02:05:01;97144.28;;;15.46;50.85
47374;BME280;33123;50.118;10.272;2023-04-22T02:07:28;97137.09;;;15.46;50.91
47374;BME280;33123;50.118;10.272;2023-04-22T02:09:54;97142.50;;;15.41;51.00
47374;BME280;33123;50.118;10.272;2023-04-22T02:12:21;97142.72;;;15.45;50.84
47374;BME280;33123;50.118;10.272;2023-04-22T02:14:49;97142.78;;;15.40;50.94
47374;BME280;33123;50.118;10.272;2023-04-22T02:17:15;97138.28;;;15.40;50.74
47374;BME280;33123;50.118;10.272;2023-04-22T02:19:43;97140.94;;;15.40;50.85
47374;BME280;33123;50.118;10.272;2023-04-22T02:22:09;97138.84;;;15.37;51.01
47374;BME280;33123;50.118;10.272;2023-04-22T02:24:36;97148.09;;;15.40;50.70
47374;BME280;33123;50.118;10.272;2023-04-22T02:27:03;97141.50;;;15.37;50.76
47374;BME280;33123;50.118;10.272;2023-04-22T02:29:29;97149.19;;;15.39;50.96
47374;BME280;33123;50.118;10.272;2023-04-22T02:31:57;97153.97;;;15.37;50.80
47374;BME280;33123;50.118;10.272;2023-04-22T02:34:24;97154.50;;;15.39;50.83
47374;BME280;33123;50.118;10.272;2023-04-22T02:36:51;97149.75;;;15.36;50.76
47374;BME280;33123;50.118;10.272;2023-04-22T02:39:18;97146.09;;;15.31;51.13
47374;BME280;33123;50.118;10.272;2023-04-22T02:41:44;97143.38;;;15.37;51.17
47374;BME280;33123;50.118;10.272;2023-04-22T02:44:11;97153.50;;;15.35;51.06
47374;BME280;33123;50.118;10.272;2023-04-22T02:46:37;97147.69;;;15.32;50.89
47374;BME280;33123;50.118;10.272;2023-04-22T02:49:05;97150.06;;;15.34;50.87
47374;BME280;33123;50.118;10.272;2023-04-22T02:51:32;97151.94;;;15.34;50.97
47374;BME280;33123;50.118;10.272;2023-04-22T02:53:58;97145.31;;;15.31;51.28
47374;BME280;33123;50.118;10.272;2023-04-22T02:56:25;97140.88;;;15.26;51.48
47374;BME280;33123;50.118;10.272;2023-04-22T02:58:52;97138.00;;;15.23;51.33
47374;BME280;33123;50.118;10.272;2023-04-22T03:01:18;97142.25;;;15.24;51.36
47374;BME280;33123;50.118;10.272;2023-04-22T03:03:45;97137.78;;;15.19;51.47
47374;BME280;33123;50.118;10.272;2023-04-22T03:06:13;97144.69;;;15.20;51.39
47374;BME280;33123;50.118;10.272;2023-04-22T03:08:39;97139.19;;;15.17;51.39
47374;BME280;33123;50.118;10.272;2023-04-22T03:11:06;97139.38;;;15.20;51.57
47374;BME280;33123;50.118;10.272;2023-04-22T03:13:33;97138.66;;;15.15;51.43
47374;BME280;33123;50.118;10.272;2023-04-22T03:15:59;97145.56;;;15.16;51.43
47374;BME280;33123;50.118;10.272;2023-04-22T03:18:26;97147.22;;;15.12;51.21
47374;BME280;33123;50.118;10.272;2023-04-22T03:20:52;97145.03;;;15.14;51.65
47374;BME280;33123;50.118;10.272;2023-04-22T03:23:20;97091.19;;;14.75;51.41
47374;BME280;33123;50.118;10.272;2023-04-22T03:25:47;97144.81;;;15.10;51.36
47374;BME280;33123;50.118;10.272;2023-04-22T03:28:14;97147.22;;;15.12;51.32
47374;BME280;33123;50.118;10.272;2023-04-22T03:30:40;97143.78;;;15.11;51.34
47374;BME280;33123;50.118;10.272;2023-04-22T03:33:07;97149.94;;;15.07;51.60
47374;BME280;33123;50.118;10.272;2023-04-22T03:35:33;97153.69;;;15.05;51.62
47374;BME280;33123;50.118;10.272;2023-04-22T03:38:00;97155.03;;;15.03;51.44
47374;BME280;33123;50.118;10.272;2023-04-22T03:40:28;97153.44;;;15.02;51.35
47374;BME280;33123;50.118;10.272;2023-04-22T03:42:55;97151.88;;;15.01;51.08
47374;BME280;33123;50.118;10.272;2023-04-22T03:45:21;97154.00;;;14.99;51.07
47374;BME280;33123;50.118;10.272;2023-04-22T03:47:48;97152.44;;;14.98;51.15
47374;BME280;33123;50.118;10.272;2023-04-22T03:50:15;97125.63;;;14.81;51.81
47374;BME280;33123;50.118;10.272;2023-04-22T03:52:41;97154.09;;;14.94;51.24
47374;BME280;33123;50.118;10.272;2023-04-22T03:55:08;97148.88;;;14.89;51.62
47374;BME280;33123;50.118;10.272;2023-04-22T03:57:36;97149.91;;;14.88;52.13
47374;BME280;33123;50.118;10.272;2023-04-22T04:00:04;97148.16;;;14.83;52.29
47374;BME280;33123;50.118;10.272;2023-04-22T04:02:31;97151.13;;;14.76;52.17
47374;BME280;33123;50.118;10.272;2023-04-22T04:04:57;97148.56;;;14.71;52.63
47374;BME280;33123;50.118;10.272;2023-04-22T04:07:24;97140.94;;;14.65;52.36
47374;BME280;33123;50.118;10.272;2023-04-22T04:09:50;97152.41;;;14.60;52.89
47374;BME280;33123;50.118;10.272;2023-04-22T04:12:17;97146.38;;;14.55;52.43
47374;BME280;33123;50.118;10.272;2023-04-22T04:14:45;97150.09;;;14.53;53.10
47374;BME280;33123;50.118;10.272;2023-04-22T04:17:11;97148.31;;;14.49;52.60
47374;BME280;33123;50.118;10.272;2023-04-22T04:19:39;97145.94;;;14.47;53.29
47374;BME280;33123;50.118;10.272;2023-04-22T04:22:06;97141.97;;;14.45;53.82
47374;BME280;33123;50.118;10.272;2023-04-22T04:24:33;97139.09;;;14.41;53.90
47374;BME280;33123;50.118;10.272;2023-04-22T04:27:06;97145.00;;;14.38;53.86
47374;BME280;33123;50.118;10.272;2023-04-22T04:29:33;97148.69;;;14.37;52.40
47374;BME280;33123;50.118;10.272;2023-04-22T04:32:01;97148.91;;;14.41;52.61
47374;BME280;33123;50.118;10.272;2023-04-22T04:34:28;97149.94;;;14.45;52.69
47374;BME280;33123;50.118;10.272;2023-04-22T04:36:56;97153.34;;;14.50;52.89
47374;BME280;33123;50.118;10.272;2023-04-22T04:39:23;97149.84;;;14.55;52.26
47374;BME280;33123;50.118;10.272;2023-04-22T04:41:50;97152.63;;;14.64;52.24
47374;BME280;33123;50.118;10.272;2023-04-22T04:44:19;97155.47;;;14.72;52.57
47374;BME280;33123;50.118;10.272;2023-04-22T04:46:46;97154.00;;;14.80;52.21
47374;BME280;33123;50.118;10.272;2023-04-22T04:49:14;97148.88;;;14.89;51.57
47374;BME280;33123;50.118;10.272;2023-04-22T04:51:41;97156.97;;;14.97;50.81
47374;BME280;33123;50.118;10.272;2023-04-22T04:54:07;97152.22;;;15.13;50.63
47374;BME280;33123;50.118;10.272;2023-04-22T04:56:34;97150.84;;;15.35;50.44
47374;BME280;33123;50.118;10.272;2023-04-22T04:59:01;97160.56;;;15.58;49.54
47374;BME280;33123;50.118;10.272;2023-04-22T05:01:27;97162.44;;;15.90;48.83
47374;BME280;33123;50.118;10.272;2023-04-22T05:03:54;97153.69;;;16.17;47.89
47374;BME280;33123;50.118;10.272;2023-04-22T05:06:22;97164.81;;;16.47;47.62
47374;BME280;33123;50.118;10.272;2023-04-22T05:08:48;97165.50;;;16.80;47.04
47374;BME280;33123;50.118;10.272;2023-04-22T05:11:15;97169.44;;;17.19;46.75
47374;BME280;33123;50.118;10.272;2023-04-22T05:13:41;97172.53;;;17.57;45.72
47374;BME280;33123;50.118;10.272;2023-04-22T05:16:08;97172.31;;;17.89;43.56
47374;BME280;33123;50.118;10.272;2023-04-22T05:18:35;97173.34;;;18.11;42.85
47374;BME280;33123;50.118;10.272;2023-04-22T05:21:01;97168.69;;;18.25;42.16
47374;BME280;33123;50.118;10.272;2023-04-22T05:23:30;97161.06;;;18.41;42.01
47374;BME280;33123;50.118;10.272;2023-04-22T05:25:56;97170.03;;;18.54;41.94
47374;BME280;33123;50.118;10.272;2023-04-22T05:28:23;97167.22;;;18.59;41.51
47374;BME280;33123;50.118;10.272;2023-04-22T05:30:50;97167.88;;;18.64;41.30
47374;BME280;33123;50.118;10.272;2023-04-22T05:33:16;97169.81;;;18.81;41.57
47374;BME280;33123;50.118;10.272;2023-04-22T05:35:43;97177.38;;;18.96;40.79
47374;BME280;33123;50.118;10.272;2023-04-22T05:38:10;97167.66;;;19.18;40.02
47374;BME280;33123;50.118;10.272;2023-04-22T05:40:38;97167.94;;;19.42;40.14
47374;BME280;33123;50.118;10.272;2023-04-22T05:43:04;97165.13;;;19.65;39.52
47374;BME280;33123;50.118;10.272;2023-04-22T05:45:31;97165.28;;;19.77;39.58
47374;BME280;33123;50.118;10.272;2023-04-22T05:47:58;97166.50;;;19.71;38.68
47374;BME280;33123;50.118;10.272;2023-04-22T05:50:25;97177.69;;;19.56;39.11
47374;BME280;33123;50.118;10.272;2023-04-22T05:52:51;97173.13;;;19.56;39.08
47374;BME280;33123;50.118;10.272;2023-04-22T05:55:18;97172.66;;;19.45;39.93
47374;BME280;33123;50.118;10.272;2023-04-22T05:57:46;97173.63;;;19.49;39.38
47374;BME280;33123;50.118;10.272;2023-04-22T06:00:14;97175.31;;;19.54;38.99
47374;BME280;33123;50.118;10.272;2023-04-22T06:02:41;97163.34;;;19.86;39.11
47374;BME280;33123;50.118;10.272;2023-04-22T06:05:08;97168.78;;;20.16;38.57
47374;BME280;33123;50.118;10.272;2023-04-22T06:07:35;97175.25;;;20.44;37.69
47374;BME280;33123;50.118;10.272;2023-04-22T06:10:01;97163.75;;;20.52;37.44
47374;BME280;33123;50.118;10.272;2023-04-22T06:12:28;97164.06;;;20.51;37.14
47374;BME280;33123;50.118;10.272;2023-04-22T06:14:56;97174.41;;;20.61;37.18
47374;BME280;33123;50.118;10.272;2023-04-22T06:17:23;97176.34;;;20.52;37.14
47374;BME280;33123;50.118;10.272;2023-04-22T06:19:50;97172.88;;;20.43;37.18
47374;BME280;33123;50.118;10.272;2023-04-22T06:22:16;97167.78;;;20.59;37.26
47374;BME280;33123;50.118;10.272;2023-04-22T06:24:43;97163.34;;;20.71;36.64
47374;BME280;33123;50.118;10.272;2023-04-22T06:27:09;97164.94;;;20.93;36.86
47374;BME280;33123;50.118;10.272;2023-04-22T06:29:36;97169.75;;;21.00;36.30
47374;BME280;33123;50.118;10.272;2023-04-22T06:32:04;97164.25;;;20.96;36.90
47374;BME280;33123;50.118;10.272;2023-04-22T06:34:30;97168.19;;;20.99;36.74
47374;BME280;33123;50.118;10.272;2023-04-22T06:36:57;97159.28;;;20.86;36.66
47374;BME280;33123;50.118;10.272;2023-04-22T06:39:24;97162.81;;;20.78;36.85
47374;BME280;33123;50.118;10.272;2023-04-22T06:41:50;97152.56;;;20.50;37.10
47374;BME280;33123;50.118;10.272;2023-04-22T06:44:17;97151.03;;;20.41;37.51
47374;BME280;33123;50.118;10.272;2023-04-22T06:46:43;97158.69;;;20.13;38.34
47374;BME280;33123;50.118;10.272;2023-04-22T06:49:12;97155.63;;;19.93;38.31
47374;BME280;33123;50.118;10.272;2023-04-22T06:51:38;97161.44;;;19.87;38.50
47374;BME280;33123;50.118;10.272;2023-04-22T06:54:05;97151.91;;;19.68;38.60
47374;BME280;33123;50.118;10.272;2023-04-22T06:56:31;97165.75;;;19.62;39.00
47374;BME280;33123;50.118;10.272;2023-04-22T06:58:58;97159.75;;;19.65;39.79
47374;BME280;33123;50.118;10.272;2023-04-22T07:01:25;97153.31;;;19.74;39.15
47374;BME280;33123;50.118;10.272;2023-04-22T07:03:51;97158.91;;;19.99;39.06
47374;BME280;33123;50.118;10.272;2023-04-22T07:06:19;97162.22;;;20.34;38.75
47374;BME280;33123;50.118;10.272;2023-04-22T07:08:46;97155.47;;;20.66;38.42
47374;BME280;33123;50.118;10.272;2023-04-22T07:11:13;97161.69;;;20.79;37.68
47374;BME280;33123;50.118;10.272;2023-04-22T07:13:39;97161.25;;;20.77;37.33
47374;BME280;33123;50.118;10.272;2023-04-22T07:16:06;97158.16;;;20.87;37.62
47374;BME280;33123;50.118;10.272;2023-04-22T07:18:33;97158.75;;;20.72;37.25
47374;BME280;33123;50.118;10.272;2023-04-22T07:21:00;97158.28;;;20.70;37.44
47374;BME280;33123;50.118;10.272;2023-04-22T07:23:28;97158.47;;;20.65;37.59
47374;BME280;33123;50.118;10.272;2023-04-22T07:25:54;97158.06;;;20.54;37.67
47374;BME280;33123;50.118;10.272;2023-04-22T07:28:21;97151.31;;;20.77;37.47
47374;BME280;33123;50.118;10.272;2023-04-22T07:30:48;97159.28;;;20.86;37.00
47374;BME280;33123;50.118;10.272;2023-04-22T07:33:14;97162.75;;;21.07;37.18
47374;BME280;33123;50.118;10.272;2023-04-22T07:35:41;97151.88;;;21.33;36.25
47374;BME280;33123;50.118;10.272;2023-04-22T07:38:07;97150.72;;;21.55;36.54
47374;BME280;33123;50.118;10.272;2023-04-22T07:40:35;97151.47;;;21.77;35.56
47374;BME280;33123;50.118;10.272;2023-04-22T07:43:02;97147.84;;;22.18;35.25
47374;BME280;33123;50.118;10.272;2023-04-22T07:45:29;97150.44;;;22.51;34.70
47374;BME280;33123;50.118;10.272;2023-04-22T07:47:56;97147.84;;;22.67;34.14
47374;BME280;33123;50.118;10.272;2023-04-22T07:50:23;97149.50;;;22.59;33.81
47374;BME280;33123;50.118;10.272;2023-04-22T07:52:49;97143.22;;;22.80;34.29
47374;BME280;33123;50.118;10.272;2023-04-22T07:55:16;97141.00;;;22.94;34.21
47374;BME280;33123;50.118;10.272;2023-04-22T07:57:44;97151.56;;;23.15;33.73
47374;BME280;33123;50.118;10.272;2023-04-22T08:00:12;97150.50;;;23.32;33.35
47374;BME280;33123;50.118;10.272;2023-04-22T08:02:39;97146.16;;;23.27;33.02
47374;BME280;33123;50.118;10.272;2023-04-22T08:05:06;97147.91;;;23.35;32.99
47374;BME280;33123;50.118;10.272;2023-04-22T08:07:33;97139.63;;;23.56;33.45
47374;BME280;33123;50.118;10.272;2023-04-22T08:10:00;97137.63;;;23.65;32.68
47374;BME280;33123;50.118;10.272;2023-04-22T08:12:27;97143.38;;;23.95;32.23
47374;BME280;33123;50.118;10.272;2023-04-22T08:14:55;97148.66;;;23.92;32.22
47374;BME280;33123;50.118;10.272;2023-04-22T08:17:23;97141.19;;;24.01;32.31
47374;BME280;33123;50.118;10.272;2023-04-22T08:19:49;97139.72;;;23.88;32.37
47374;BME280;33123;50.118;10.272;2023-04-22T08:22:16;97141.19;;;23.85;32.85
47374;BME280;33123;50.118;10.272;2023-04-22T08:24:43;97139.53;;;23.81;32.54
47374;BME280;33123;50.118;10.272;2023-04-22T08:27:10;97137.97;;;23.52;32.85
47374;BME280;33123;50.118;10.272;2023-04-22T08:29:36;97134.69;;;23.58;32.86
47374;BME280;33123;50.118;10.272;2023-04-22T08:32:04;97134.66;;;23.70;32.90
47374;BME280;33123;50.118;10.272;2023-04-22T08:34:31;97132.22;;;23.81;33.29
47374;BME280;33123;50.118;10.272;2023-04-22T08:36:58;97137.88;;;23.92;32.87
47374;BME280;33123;50.118;10.272;2023-04-22T08:39:24;97129.81;;;24.08;32.47
47374;BME280;33123;50.118;10.272;2023-04-22T08:41:52;97131.84;;;24.27;32.05
47374;BME280;33123;50.118;10.272;2023-04-22T08:44:20;97134.25;;;24.47;32.10
47374;BME280;33123;50.118;10.272;2023-04-22T08:46:47;97124.34;;;24.36;31.66
47374;BME280;33123;50.118;10.272;2023-04-22T08:49:16;97110.22;;;24.39;31.73
47374;BME280;33123;50.118;10.272;2023-04-22T08:51:44;97119.00;;;24.71;32.47
47374;BME280;33123;50.118;10.272;2023-04-22T08:54:11;97114.25;;;24.84;31.89
47374;BME280;33123;50.118;10.272;2023-04-22T08:56:40;97118.81;;;24.99;31.28
47374;BME280;33123;50.118;10.272;2023-04-22T08:59:08;97094.03;;;24.74;31.60
47374;BME280;33123;50.118;10.272;2023-04-22T09:01:36;97128.16;;;25.21;30.90
47374;BME280;33123;50.118;10.272;2023-04-22T09:04:03;97124.03;;;25.27;30.76
47374;BME280;33123;50.118;10.272;2023-04-22T09:06:32;97118.53;;;25.43;30.30
47374;BME280;33123;50.118;10.272;2023-04-22T09:08:59;97123.78;;;25.55;30.25
47374;BME280;33123;50.118;10.272;2023-04-22T09:11:26;97120.44;;;25.62;29.99
47374;BME280;33123;50.118;10.272;2023-04-22T09:13:53;97124.66;;;25.20;31.18
47374;BME280;33123;50.118;10.272;2023-04-22T09:16:20;97116.50;;;25.17;30.75
47374;BME280;33123;50.118;10.272;2023-04-22T09:18:47;97114.34;;;25.26;31.10
47374;BME280;33123;50.118;10.272;2023-04-22T09:21:13;97109.16;;;24.98;31.22
47374;BME280;33123;50.118;10.272;2023-04-22T09:23:50;97113.84;;;25.01;31.50
47374;BME280;33123;50.118;10.272;2023-04-22T09:26:18;97113.53;;;24.87;31.47
47374;BME280;33123;50.118;10.272;2023-04-22T09:28:49;97117.28;;;24.63;31.43
47374;BME280;33123;50.118;10.272;2023-04-22T09:31:17;97120.19;;;24.07;32.12
47374;BME280;33123;50.118;10.272;2023-04-22T09:33:48;97109.06;;;23.92;32.66
47374;BME280;33123;50.118;10.272;2023-04-22T09:36:15;97117.16;;;23.77;32.73
47374;BME280;33123;50.118;10.272;2023-04-22T09:39:02;97114.50;;;23.36;33.28
47374;BME280;33123;50.118;10.272;2023-04-22T09:41:31;97114.72;;;23.15;33.31
47374;BME280;33123;50.118;10.272;2023-04-22T09:43:59;97092.69;;;22.98;33.84
47374;BME280;33123;50.118;10.272;2023-04-22T09:46:27;97113.06;;;23.39;33.62
47374;BME280;33123;50.118;10.272;2023-04-22T09:48:56;97110.97;;;23.48;33.24
47374;BME280;33123;50.118;10.272;2023-04-22T09:51:23;97105.25;;;23.78;33.31
47374;BME280;33123;50.118;10.272;2023-04-22T09:53:59;97108.63;;;24.06;32.90
47374;BME280;33123;50.118;10.272;2023-04-22T09:56:42;97100.63;;;24.26;32.17
47374;BME280;33123;50.118;10.272;2023-04-22T09:59:09;97106.28;;;24.36;32.66
47374;BME280;33123;50.118;10.272;2023-04-22T10:01:36;97096.63;;;24.51;31.88
47374;BME280;33123;50.118;10.272;2023-04-22T10:04:05;97100.16;;;24.71;32.50
47374;BME280;33123;50.118;10.272;2023-04-22T10:06:32;97096.22;;;24.68;31.31
47374;BME280;33123;50.118;10.272;2023-04-22T10:08:59;97084.03;;;24.74;31.58
47374;BME280;33123;50.118;10.272;2023-04-22T10:11:26;97080.38;;;24.83;31.63
47374;BME280;33123;50.118;10.272;2023-04-22T10:13:54;97075.19;;;24.93;31.48
47374;BME280;33123;50.118;10.272;2023-04-22T10:16:23;97075.53;;;24.72;31.46
47374;BME280;33123;50.118;10.272;2023-04-22T10:18:51;97077.38;;;24.88;30.99
47374;BME280;33123;50.118;10.272;2023-04-22T10:21:22;97076.09;;;24.82;32.33
47374;BME280;33123;50.118;10.272;2023-04-22T10:23:49;97071.13;;;24.84;31.26
47374;BME280;33123;50.118;10.272;2023-04-22T10:26:37;97078.50;;;24.87;31.38
47374;BME280;33123;50.118;10.272;2023-04-22T10:29:06;97075.53;;;25.31;30.63
47374;BME280;33123;50.118;10.272;2023-04-22T10:31:36;97078.38;;;25.80;30.81
47374;BME280;33123;50.118;10.272;2023-04-22T10:34:10;97080.66;;;26.27;29.14
47374;BME280;33123;50.118;10.272;2023-04-22T10:36:52;97067.19;;;26.31;28.45
47374;BME280;33123;50.118;10.272;2023-04-22T10:39:20;97072.56;;;26.54;28.41
47374;BME280;33123;50.118;10.272;2023-04-22T10:41:53;97071.84;;;26.57;27.94
47374;BME280;33123;50.118;10.272;2023-04-22T10:44:21;97072.91;;;26.49;27.24
47374;BME280;33123;50.118;10.272;2023-04-22T10:46:58;97068.09;;;26.39;27.26
47374;BME280;33123;50.118;10.272;2023-04-22T10:49:25;97071.19;;;26.41;28.19
47374;BME280;33123;50.118;10.272;2023-04-22T10:51:53;97065.69;;;26.07;28.49
47374;BME280;33123;50.118;10.272;2023-04-22T10:54:57;97067.13;;;26.01;28.60
47374;BME280;33123;50.118;10.272;2023-04-22T10:57:39;97064.13;;;26.06;28.68
47374;BME280;33123;50.118;10.272;2023-04-22T11:03:09;97058.28;;;26.27;29.13
47374;BME280;33123;50.118;10.272;2023-04-22T11:05:36;97044.78;;;26.04;28.88
47374;BME280;33123;50.118;10.272;2023-04-22T11:08:05;97055.66;;;26.08;28.97
47374;BME280;33123;50.118;10.272;2023-04-22T11:10:34;97031.78;;;26.10;29.36
47374;BME280;33123;50.118;10.272;2023-04-22T11:13:39;97064.31;;;26.20;29.38
47374;BME280;33123;50.118;10.272;2023-04-22T11:16:08;97056.13;;;26.13;29.17
47374;BME280;33123;50.118;10.272;2023-04-22T11:18:35;97061.22;;;26.18;29.24
47374;BME280;33123;50.118;10.272;2023-04-22T11:21:04;97058.75;;;26.32;29.31
47374;BME280;33123;50.118;10.272;2023-04-22T11:23:33;97052.72;;;26.16;28.94
47374;BME280;33123;50.118;10.272;2023-04-22T11:26:01;97051.75;;;26.31;29.34
47374;BME280;33123;50.118;10.272;2023-04-22T11:28:28;97049.06;;;26.31;28.65
47374;BME280;33123;50.118;10.272;2023-04-22T11:31:02;97037.22;;;26.66;28.58
47374;BME280;33123;50.118;10.272;2023-04-22T11:33:32;97030.50;;;26.87;28.29
47374;BME280;33123;50.118;10.272;2023-04-22T11:36:00;97007.59;;;26.47;28.58
47374;BME280;33123;50.118;10.272;2023-04-22T11:38:26;97027.56;;;26.39;28.04
47374;BME280;33123;50.118;10.272;2023-04-22T11:40:54;97046.69;;;26.00;27.88
47374;BME280;33123;50.118;10.272;2023-04-22T11:43:22;97034.63;;;25.94;29.17
47374;BME280;33123;50.118;10.272;2023-04-22T11:45:48;97042.91;;;25.82;28.95
47374;BME280;33123;50.118;10.272;2023-04-22T11:48:15;97033.41;;;25.68;28.82
47374;BME280;33123;50.118;10.272;2023-04-22T11:50:43;97034.94;;;25.89;29.08
47374;BME280;33123;50.118;10.272;2023-04-22T11:53:13;97028.59;;;25.77;29.84
47374;BME280;33123;50.118;10.272;2023-04-22T11:55:41;97030.78;;;25.49;29.73
47374;BME280;33123;50.118;10.272;2023-04-22T11:58:09;97031.75;;;25.83;29.75
47374;BME280;33123;50.118;10.272;2023-04-22T12:00:39;97015.50;;;25.79;30.70
47374;BME280;33123;50.118;10.272;2023-04-22T12:03:08;97040.25;;;25.62;31.13
47374;BME280;33123;50.118;10.272;2023-04-22T12:05:39;97034.09;;;25.62;29.00
47374;BME280;33123;50.118;10.272;2023-04-22T12:08:08;97034.56;;;25.44;28.82
47374;BME280;33123;50.118;10.272;2023-04-22T12:10:40;96995.53;;;25.15;30.86
47374;BME280;33123;50.118;10.272;2023-04-22T12:13:07;96999.84;;;25.00;30.47
47374;BME280;33123;50.118;10.272;2023-04-22T12:15:41;97029.19;;;25.25;30.57
47374;BME280;33123;50.118;10.272;2023-04-22T12:18:09;97023.81;;;25.48;30.32
47374;BME280;33123;50.118;10.272;2023-04-22T12:20:37;97025.63;;;25.40;30.28
47374;BME280;33123;50.118;10.272;2023-04-22T12:23:06;97019.06;;;25.41;29.83
47374;BME280;33123;50.118;10.272;2023-04-22T12:25:37;97010.31;;;25.48;30.53
47374;BME280;33123;50.118;10.272;2023-04-22T12:28:03;97012.31;;;25.51;30.92
47374;BME280;33123;50.118;10.272;2023-04-22T12:30:30;97008.34;;;25.45;30.05
47374;BME280;33123;50.118;10.272;2023-04-22T12:32:57;97008.56;;;25.59;29.63
47374;BME280;33123;50.118;10.272;2023-04-22T12:35:23;97015.25;;;25.65;29.86
47374;BME280;33123;50.118;10.272;2023-04-22T12:37:51;97012.31;;;25.74;29.82
47374;BME280;33123;50.118;10.272;2023-04-22T12:40:19;97005.94;;;25.63;30.65
47374;BME280;33123;50.118;10.272;2023-04-22T12:42:46;97006.41;;;25.68;30.56
47374;BME280;33123;50.118;10.272;2023-04-22T12:45:12;97004.88;;;25.67;31.08
47374;BME280;33123;50.118;10.272;2023-04-22T12:47:39;97002.59;;;25.23;31.02
47374;BME280;33123;50.118;10.272;2023-04-22T12:50:06;96997.13;;;25.00;31.55
47374;BME280;33123;50.118;10.272;2023-04-22T12:52:33;96997.75;;;25.33;30.79
47374;BME280;33123;50.118;10.272;2023-04-22T12:55:00;96989.09;;;25.46;31.10
47374;BME280;33123;50.118;10.272;2023-04-22T12:57:28;96986.28;;;25.62;31.45